createdAt,value
2023-01-08T11:42:51.593Z,102092.91
2023-01-08T11:46:06.531Z,102094.77
2023-01-08T11:49:37.121Z,102090.27
2023-01-08T11:52:44.093Z,102090.42
2023-01-08T11:55:36.672Z,102084.20
2023-01-08T11:58:33.562Z,102085.52
2023-01-08T12:01:15.849Z,102081.10
2023-01-08T12:04:04.839Z,102078.10
2023-01-08T12:07:26.031Z,102073.77
2023-01-08T12:10:19.642Z,102068.55
2023-01-08T12:13:22.787Z,102039.23
2023-01-08T12:16:17.593Z,102061.61
2023-01-08T12:19:33.404Z,102060.84
2023-01-08T12:22:27.877Z,102057.34
2023-01-08T12:25:46.769Z,102053.24
2023-01-08T12:28:48.434Z,102052.46
2023-01-08T12:31:32.074Z,102048.86
2023-01-08T12:34:16.808Z,102052.63
2023-01-08T12:36:52.497Z,102056.49
2023-01-08T12:39:33.987Z,102055.11
2023-01-08T12:42:30.082Z,102055.41
2023-01-08T12:44:59.909Z,102047.27
2023-01-08T12:47:32.961Z,102043.58
2023-01-08T12:50:38.029Z,102036.14
2023-01-08T12:53:19.158Z,102037.42
2023-01-08T12:56:00.751Z,102039.21
2023-01-08T12:58:39.057Z,102039.05
2023-01-08T13:01:28.092Z,102035.66
2023-01-08T13:03:58.123Z,102036.41
2023-01-08T13:06:26.506Z,102039.33
2023-01-08T13:08:57.239Z,102038.61
2023-01-08T13:26:06.160Z,102041.86
2023-01-08T13:28:38.744Z,102044.73
2023-01-08T13:31:24.611Z,102048.08
2023-01-08T13:33:54.864Z,102043.79
2023-01-08T13:36:32.435Z,102041.55
2023-01-08T13:39:19.141Z,102046.23
2023-01-08T13:42:22.388Z,102041.84
2023-01-08T13:45:02.834Z,102038.21
2023-01-08T13:47:37.554Z,102031.73
2023-01-08T13:50:25.494Z,102033.72
2023-01-08T13:52:58.939Z,102038.59
2023-01-08T13:55:31.690Z,102036.98
2023-01-08T13:58:08.297Z,102031.48
2023-01-08T14:00:43.224Z,102032.12
2023-01-08T14:03:35.706Z,102033.63
2023-01-08T14:06:18.369Z,102039.61
2023-01-08T14:08:59.983Z,102040.32
2023-01-08T14:11:42.500Z,102038.36
2023-01-08T14:14:22.681Z,102032.46
2023-01-08T14:16:54.377Z,102031.23
2023-01-08T14:19:26.431Z,102030.11
2023-01-08T14:21:59.190Z,102030.33
2023-01-08T14:24:28.304Z,102030.87
2023-01-08T14:27:00.477Z,102031.55
2023-01-08T14:29:33.318Z,102030.90
2023-01-08T14:32:02.393Z,102031.33
2023-01-08T14:34:32.631Z,102032.58
2023-01-08T14:37:01.559Z,102032.08
2023-01-08T14:39:35.909Z,102029.56
2023-01-08T14:42:45.597Z,102025.16
2023-01-08T14:45:23.433Z,102027.52
2023-01-08T14:48:15.146Z,102028.17
2023-01-08T14:50:52.131Z,102030.05
2023-01-08T14:54:09.093Z,102033.05
2023-01-08T14:56:39.259Z,102028.79
2023-01-08T14:59:11.497Z,102030.71
2023-01-08T15:01:40.787Z,102028.57
2023-01-08T15:04:21.343Z,102031.23
2023-01-08T15:06:51.993Z,102030.71
2023-01-08T15:09:35.008Z,102030.52
2023-01-08T15:12:22.856Z,102030.20
2023-01-08T15:14:52.560Z,102024.45
2023-01-08T15:17:26.252Z,102016.95
2023-01-08T15:20:00.609Z,102016.45
2023-01-08T15:22:32.988Z,102017.11
2023-01-08T15:25:08.628Z,102014.98
2023-01-08T15:27:39.956Z,102005.73
2023-01-08T15:30:35.599Z,102005.35
2023-01-08T15:33:22.688Z,102006.58
2023-01-08T15:35:51.929Z,102006.95
2023-01-08T15:38:21.319Z,102007.13
2023-01-08T15:40:53.541Z,102015.16
2023-01-08T15:43:22.729Z,102013.79
2023-01-08T15:45:51.858Z,102009.88
2023-01-08T15:48:26.605Z,102012.31
2023-01-08T15:50:58.309Z,102012.88
2023-01-08T15:53:27.421Z,102013.23
2023-01-08T15:55:56.554Z,102012.50
2023-01-08T15:58:26.570Z,102011.96
2023-01-08T16:00:56.762Z,102012.50
2023-01-08T16:03:26.177Z,102016.45
2023-01-08T16:05:55.404Z,102021.30
2023-01-08T16:08:24.807Z,102020.49
2023-01-08T16:10:54.283Z,102019.69
2023-01-08T16:13:23.609Z,102019.80
2023-01-08T16:15:52.961Z,102018.71
2023-01-08T16:18:22.406Z,102018.15
2023-01-08T16:21:03.101Z,102022.06
2023-01-08T16:23:43.351Z,102020.71
2023-01-08T16:26:16.770Z,102013.94
2023-01-08T16:28:46.686Z,102013.29
2023-01-08T16:31:15.456Z,102011.41
2023-01-08T16:33:44.630Z,102014.91
2023-01-08T16:36:14.430Z,102015.21
2023-01-08T16:38:43.529Z,102016.70
2023-01-08T16:41:12.657Z,102014.50
2023-01-08T16:43:42.208Z,102012.84
2023-01-08T16:46:18.236Z,102011.80
2023-01-08T16:48:49.103Z,102010.30
2023-01-08T16:51:18.550Z,102009.41
2023-01-08T16:53:48.534Z,102008.08
2023-01-08T16:56:18.544Z,102011.49
2023-01-08T16:58:52.882Z,102014.13
2023-01-08T17:01:21.961Z,102013.49
2023-01-08T17:03:51.847Z,102011.42
2023-01-08T17:06:21.244Z,102012.59
2023-01-08T17:08:50.850Z,102014.22
2023-01-08T17:11:22.889Z,102018.98
2023-01-08T17:13:52.572Z,102019.83
2023-01-08T17:16:22.772Z,102019.49
2023-01-08T17:18:52.810Z,102017.09
2023-01-08T17:21:21.997Z,102014.15
2023-01-08T17:23:51.973Z,102018.20
2023-01-08T17:26:21.658Z,102019.84
2023-01-08T17:28:56.269Z,102020.56
2023-01-08T17:31:25.815Z,102018.04
2023-01-08T17:33:57.747Z,102017.70
2023-01-08T17:36:27.054Z,102018.89
2023-01-08T17:39:01.102Z,102016.48
2023-01-08T17:41:50.642Z,102013.86
2023-01-08T17:44:20.829Z,102012.81
2023-01-08T17:46:57.609Z,102005.54
2023-01-08T17:49:27.109Z,102011.13
2023-01-08T17:51:57.297Z,102008.81
2023-01-08T17:54:26.633Z,102008.58
2023-01-08T17:56:55.440Z,102011.31
2023-01-08T17:59:24.827Z,102007.21
2023-01-08T18:01:53.973Z,102005.45
2023-01-08T18:04:23.754Z,102006.27
2023-01-08T18:06:52.931Z,102004.77
2023-01-08T18:09:25.241Z,102001.73
2023-01-08T18:12:04.298Z,102002.52
2023-01-08T18:14:36.283Z,101999.43
2023-01-08T18:17:06.684Z,102000.77
2023-01-08T18:19:39.258Z,102002.67
2023-01-08T18:22:08.286Z,101998.62
2023-01-08T18:24:38.119Z,101998.51
2023-01-08T18:27:08.374Z,102001.96
2023-01-08T18:29:38.180Z,101995.30
2023-01-08T18:32:07.451Z,101994.97
2023-01-08T18:34:36.952Z,101992.05
2023-01-08T18:37:06.372Z,101990.25
2023-01-08T18:39:36.495Z,101986.73
2023-01-08T18:42:24.885Z,101986.94
2023-01-08T18:44:56.344Z,101985.45
2023-01-08T18:47:29.320Z,101982.38
2023-01-08T18:50:07.005Z,101982.52
2023-01-08T18:52:40.313Z,101985.52
2023-01-08T18:55:13.799Z,101984.98
2023-01-08T18:57:44.879Z,101983.82
2023-01-08T19:00:14.785Z,101983.71
2023-01-08T19:02:44.444Z,101983.90
2023-01-08T19:05:23.082Z,101985.59
2023-01-08T19:07:55.132Z,101984.89
2023-01-08T19:10:24.248Z,101976.15
2023-01-08T19:12:53.233Z,101976.48
2023-01-08T19:15:22.322Z,101976.61
2023-01-08T19:17:52.858Z,101980.58
2023-01-08T19:20:22.714Z,101979.98
2023-01-08T19:22:52.940Z,101976.70
2023-01-08T19:25:23.372Z,101975.44
2023-01-08T19:27:53.432Z,101972.83
2023-01-08T19:30:22.377Z,101974.34
2023-01-08T19:32:51.940Z,101971.24
2023-01-08T19:36:09.815Z,101971.25
2023-01-08T19:45:31.964Z,101965.83
2023-01-08T19:48:00.821Z,101968.45
2023-01-08T19:50:32.192Z,101973.40
2023-01-08T19:53:01.217Z,101971.20
2023-01-08T19:55:30.040Z,101964.73
2023-01-08T19:57:59.971Z,101959.20
2023-01-08T20:00:29.080Z,101956.71
2023-01-08T20:02:57.864Z,101957.11
2023-01-08T20:05:26.988Z,101956.39
2023-01-08T20:07:56.005Z,101956.03
2023-01-08T20:10:30.034Z,101955.54
2023-01-08T20:13:31.633Z,101958.95
2023-01-08T20:16:00.641Z,101959.30
2023-01-08T20:18:29.970Z,101959.11
2023-01-08T20:21:11.773Z,101954.19
2023-01-08T20:33:49.724Z,101949.88
2023-01-08T20:36:21.683Z,101943.30
2023-01-08T20:39:03.777Z,101940.80
2023-01-08T20:41:32.529Z,101937.08
2023-01-08T20:44:05.648Z,101938.04
2023-01-08T20:46:35.947Z,101931.86
2023-01-08T20:52:06.618Z,101919.04
2023-01-08T20:54:35.535Z,101917.73
2023-01-08T20:57:04.405Z,101907.85
2023-01-08T20:59:33.467Z,101909.98
2023-01-08T21:02:02.329Z,101912.10
2023-01-08T21:04:31.180Z,101914.74
2023-01-08T21:07:05.394Z,101917.59
2023-01-08T21:09:34.250Z,101917.94
2023-01-08T21:12:03.387Z,101915.36
2023-01-08T21:14:32.188Z,101915.11
2023-01-08T21:17:00.927Z,101916.37
2023-01-08T21:19:29.922Z,101910.85
2023-01-08T21:22:03.682Z,101912.31
2023-01-08T21:24:32.823Z,101912.98
2023-01-08T21:27:02.478Z,101909.54
2023-01-08T21:29:31.478Z,101906.80
2023-01-08T21:32:00.283Z,101908.23
2023-01-08T21:34:29.198Z,101913.62
2023-01-08T21:36:58.690Z,101915.23
2023-01-08T21:39:29.292Z,101911.22
2023-01-08T21:42:16.833Z,101908.71
2023-01-08T21:45:04.434Z,101909.33
2023-01-08T21:47:33.509Z,101908.49
2023-01-08T21:50:05.448Z,101909.66
2023-01-08T21:52:53.185Z,101907.18
2023-01-08T21:55:23.480Z,101905.52
2023-01-08T21:57:52.949Z,101902.15
2023-01-08T22:00:23.893Z,101897.52
2023-01-08T22:02:52.977Z,101889.83
2023-01-08T22:05:23.040Z,101885.04
2023-01-08T22:07:52.186Z,101877.27
2023-01-08T22:10:20.949Z,101870.33
2023-01-08T22:12:49.658Z,101866.46
2023-01-08T22:15:20.066Z,101862.65
2023-01-08T22:17:49.066Z,101870.32
2023-01-08T22:20:18.490Z,101879.63
2023-01-08T22:22:50.051Z,101879.34
2023-01-08T22:25:21.447Z,101875.54
2023-01-08T22:27:54.523Z,101864.49
2023-01-08T22:30:23.844Z,101858.16
2023-01-08T22:32:53.453Z,101855.06
2023-01-08T22:35:22.597Z,101849.95
2023-01-08T22:37:52.557Z,101847.61
2023-01-08T22:40:21.382Z,101846.66
2023-01-08T22:42:54.052Z,101841.42
2023-01-08T22:45:23.115Z,101838.39
2023-01-08T22:47:52.026Z,101834.14
2023-01-08T22:50:20.892Z,101830.19
2023-01-08T22:52:49.872Z,101826.79
2023-01-08T22:55:18.818Z,101827.88
2023-01-08T22:57:48.205Z,101833.60
2023-01-08T23:00:19.140Z,101831.73
2023-01-08T23:02:48.292Z,101825.14
2023-01-08T23:05:17.419Z,101823.02
2023-01-08T23:07:48.767Z,101817.27
2023-01-08T23:10:18.101Z,101816.48
2023-01-08T23:12:46.916Z,101817.42
2023-01-08T23:15:15.705Z,101818.16
2023-01-08T23:17:52.181Z,101820.27
2023-01-08T23:20:23.540Z,101821.02
2023-01-08T23:22:52.503Z,101815.68
2023-01-08T23:25:23.463Z,101818.70
2023-01-08T23:27:52.548Z,101817.73
2023-01-08T23:30:21.666Z,101812.08
2023-01-08T23:32:50.734Z,101808.29
2023-01-08T23:35:19.408Z,101804.46
2023-01-08T23:37:48.199Z,101804.95
2023-01-08T23:40:18.231Z,101803.39
2023-01-08T23:42:47.014Z,101799.79
2023-01-08T23:45:15.896Z,101792.77
2023-01-08T23:47:44.780Z,101789.09
2023-01-08T23:50:13.807Z,101783.39
2023-01-08T23:52:42.688Z,101779.05
2023-01-08T23:55:11.557Z,101774.91
2023-01-08T23:57:40.376Z,101773.93
